Аэропорт: Адлер. Сочи

ICAO: URSS

METAR:
2022-06-26 10:00:00
URSS 261000Z 33001MPS 9999 -SHRA BKN040CB OVC090 20/16 Q1008 R02/290257 R06/290257 NOSIG RMK R06/36001G06MPS MT OBSC QFE755
METAR:
2022-06-26 07:55:00
TAF URSS 260755Z 2609/2709 28004G09MPS 9999 BKN040CB OVC100 TEMPO 2609/2616 VRB07G14MPS 1200 TSRA BKN010 BKN030CB OVC100 BECMG 2616/2617 05003G08MPS SCT030CB BKN100 TEMPO 2617/2624 2500 -TSRA SCT016 BKN030CB OVC100 BECMG 2700/2701 SCT030 BECMG 2706/2707 27004G09MPS